Terminal Aerodrome Forecast
Issued by NWS Boston, MA

Home | Current Version | Previous Version | Text Only | Print | Product List | Glossary On
Versions: 1 2 3 4 5 6 7 8 9 10 11 12 13 14 15 16 17 18 19 20 21 22 23 24 25 26 27 28 29 30 31 32 33 34 35 36 37 38 39 40 41 42 43 44 45 46
000
FTUS41 KBOX 202320
TAFBDL
TAF
KBDL 202320Z 2100/2206 19010KT P6SM SCT060
     FM210300 18008KT P6SM BKN045
     FM210600 19008KT 3SM BR OVC025
     FM210900 17006KT 3SM BR OVC008
     FM211800 18007KT P6SM BKN050=

USA.gov is the U.S. government's official web portal to all federal, state and local government web resources and services.